Aviation Digital Data Service (ADDS)

Output produced by METARs form (2258 UTC 23 October 2019)
found at http://www.aviationweather.gov/metar/data/
 
METAR text: UAAA 232230Z 16002MPS 9999 NSC 01/M02 Q1023 R23L/CLRD65 NOSIG
Conditions at: UAAA (ALMA-ATA , KZ) observed 2230 UTC 23 October 2019
Temperature: 1.0°C (34°F)
Dewpoint: -2.0°C (28°F) [RH = 80%]
Pressure (altimeter): 30.21 inches Hg (1023.0 mb)
Winds: from the SSE (160 degrees) at 5 MPH (4 knots; 2.1 m/s)
Visibility: 6 or more miles (10+ km)
Ceiling: at least 12,000 feet AGL
Clouds: sky clear below 12,000 feet AGL
Weather: no significant weather observed at this time

METAR text: UAAA 232200Z VRB01MPS 9999 NSC 01/M02 Q1023 R23L/CLRD65 NOSIG
Conditions at: UAAA (ALMA-ATA , KZ) observed 2200 UTC 23 October 2019
Temperature: 1.0°C (34°F)
Dewpoint: -2.0°C (28°F) [RH = 80%]
Pressure (altimeter): 30.21 inches Hg (1023.0 mb)
Winds: variable direction winds at 2 MPH (2 knots; 1.0 m/s)
Visibility: 6 or more miles (10+ km)
Ceiling: at least 12,000 feet AGL
Clouds: sky clear below 12,000 feet AGL
Weather: no significant weather observed at this time

METAR text: UAAA 232130Z 15002MPS 9999 NSC 02/M02 Q1023 R23L/CLRD65 NOSIG
Conditions at: UAAA (ALMA-ATA , KZ) observed 2130 UTC 23 October 2019
Temperature: 2.0°C (36°F)
Dewpoint: -2.0°C (28°F) [RH = 75%]
Pressure (altimeter): 30.21 inches Hg (1023.0 mb)
Winds: from the SSE (150 degrees) at 5 MPH (4 knots; 2.1 m/s)
Visibility: 6 or more miles (10+ km)
Ceiling: at least 12,000 feet AGL
Clouds: sky clear below 12,000 feet AGL
Weather: no significant weather observed at this time

METAR text: UAAA 232100Z 15002MPS 9999 NSC 02/M02 Q1023 R23L/CLRD65 NOSIG
Conditions at: UAAA (ALMA-ATA , KZ) observed 2100 UTC 23 October 2019
Temperature: 2.0°C (36°F)
Dewpoint: -2.0°C (28°F) [RH = 75%]
Pressure (altimeter): 30.21 inches Hg (1023.0 mb)
Winds: from the SSE (150 degrees) at 5 MPH (4 knots; 2.1 m/s)
Visibility: 6 or more miles (10+ km)
Ceiling: at least 12,000 feet AGL
Clouds: sky clear below 12,000 feet AGL
Weather: no significant weather observed at this time

METAR text: UAAA 232030Z 15002MPS 9999 NSC 02/M02 Q1023 R23L/CLRD65 NOSIG
Conditions at: UAAA (ALMA-ATA , KZ) observed 2030 UTC 23 October 2019
Temperature: 2.0°C (36°F)
Dewpoint: -2.0°C (28°F) [RH = 75%]
Pressure (altimeter): 30.21 inches Hg (1023.0 mb)
Winds: from the SSE (150 degrees) at 5 MPH (4 knots; 2.1 m/s)
Visibility: 6 or more miles (10+ km)
Ceiling: at least 12,000 feet AGL
Clouds: sky clear below 12,000 feet AGL
Weather: no significant weather observed at this time

METAR text: UAAA 232000Z VRB01MPS 9999 NSC 02/M01 Q1023 R23L/CLRD65 NOSIG
Conditions at: UAAA (ALMA-ATA , KZ) observed 2000 UTC 23 October 2019
Temperature: 2.0°C (36°F)
Dewpoint: -1.0°C (30°F) [RH = 80%]
Pressure (altimeter): 30.21 inches Hg (1023.0 mb)
Winds: variable direction winds at 2 MPH (2 knots; 1.0 m/s)
Visibility: 6 or more miles (10+ km)
Ceiling: at least 12,000 feet AGL
Clouds: sky clear below 12,000 feet AGL
Weather: no significant weather observed at this time

METAR text: UAAA 231930Z 15002MPS 5000 BR FU NSC 03/M02 Q1023 R23L/CLRD65 NOSIG
Conditions at: UAAA (ALMA-ATA , KZ) observed 1930 UTC 23 October 2019
Temperature: 3.0°C (37°F)
Dewpoint: -2.0°C (28°F) [RH = 70%]
Pressure (altimeter): 30.21 inches Hg (1023.0 mb)
Winds: from the SSE (150 degrees) at 5 MPH (4 knots; 2.1 m/s)
Visibility: 3 miles ( 5 km)
Ceiling: at least 12,000 feet AGL
Clouds: sky clear below 12,000 feet AGL
Weather: BR FU  (mist, smoke)

METAR text: UAAA 231900Z 14001MPS 4300 BR FU NSC 03/M01 Q1023 R23L/CLRD65 NOSIG
Conditions at: UAAA (ALMA-ATA , KZ) observed 1900 UTC 23 October 2019
Temperature: 3.0°C (37°F)
Dewpoint: -1.0°C (30°F) [RH = 75%]
Pressure (altimeter): 30.21 inches Hg (1023.0 mb)
Winds: from the SE (140 degrees) at 2 MPH (2 knots; 1.0 m/s)
Visibility: 2.67 miles (4.30 km)
Ceiling: at least 12,000 feet AGL
Clouds: sky clear below 12,000 feet AGL
Weather: BR FU  (mist, smoke)

METAR text: UAAA 231830Z 15003MPS 5000 BR FU NSC 04/M01 Q1023 R23L/CLRD65 NOSIG
Conditions at: UAAA (ALMA-ATA , KZ) observed 1830 UTC 23 October 2019
Temperature: 4.0°C (39°F)
Dewpoint: -1.0°C (30°F) [RH = 70%]
Pressure (altimeter): 30.21 inches Hg (1023.0 mb)
Winds: from the SSE (150 degrees) at 7 MPH (6 knots; 3.1 m/s)
Visibility: 3 miles ( 5 km)
Ceiling: at least 12,000 feet AGL
Clouds: sky clear below 12,000 feet AGL
Weather: BR FU  (mist, smoke)

METAR text: UAAA 231800Z 15002MPS 3000 BR FU NSC 04/M02 Q1023 R23L/CLRD65 NOSIG
Conditions at: UAAA (ALMA-ATA , KZ) observed 1800 UTC 23 October 2019
Temperature: 4.0°C (39°F)
Dewpoint: -2.0°C (28°F) [RH = 65%]
Pressure (altimeter): 30.21 inches Hg (1023.0 mb)
Winds: from the SSE (150 degrees) at 5 MPH (4 knots; 2.1 m/s)
Visibility: 1.86 miles (2.99 km)
Ceiling: at least 12,000 feet AGL
Clouds: sky clear below 12,000 feet AGL
Weather: BR FU  (mist, smoke)

METAR text: UAAA 231730Z 00000MPS 3200 BR FU NSC 03/M01 Q1024 R05R/CLRD65 NOSIG
Conditions at: UAAA (ALMA-ATA , KZ) observed 1730 UTC 23 October 2019
Temperature: 3.0°C (37°F)
Dewpoint: -1.0°C (30°F) [RH = 75%]
Pressure (altimeter): 30.24 inches Hg (1024.0 mb)
Winds: calm
Visibility: 1.99 miles (3.20 km)
Ceiling: at least 12,000 feet AGL
Clouds: sky clear below 12,000 feet AGL
Weather: BR FU  (mist, smoke)

METAR text: UAAA 231700Z 15001MPS 2800 FU NSC 04/M02 Q1024 R05R/CLRD65 NOSIG
Conditions at: UAAA (ALMA-ATA , KZ) observed 1700 UTC 23 October 2019
Temperature: 4.0°C (39°F)
Dewpoint: -2.0°C (28°F) [RH = 65%]
Pressure (altimeter): 30.24 inches Hg (1024.0 mb)
Winds: from the SSE (150 degrees) at 2 MPH (2 knots; 1.0 m/s)
Visibility: 1.74 miles (2.80 km)
Ceiling: at least 12,000 feet AGL
Clouds: sky clear below 12,000 feet AGL
Weather: FU  (smoke)

METAR text: UAAA 231630Z 17001MPS 2400 FU NSC 05/M01 Q1024 R05R/CLRD65 NOSIG
Conditions at: UAAA (ALMA-ATA , KZ) observed 1630 UTC 23 October 2019
Temperature: 5.0°C (41°F)
Dewpoint: -1.0°C (30°F) [RH = 65%]
Pressure (altimeter): 30.24 inches Hg (1024.0 mb)
Winds: from the S (170 degrees) at 2 MPH (2 knots; 1.0 m/s)
Visibility: 1.49 miles (2.40 km)
Ceiling: at least 12,000 feet AGL
Clouds: sky clear below 12,000 feet AGL
Weather: FU  (smoke)

METAR text: UAAA 231600Z 00000MPS 1700 R05R/P2000 BR FU NSC 04/M01 Q1024 R05R/CLRD65 TEMPO 1200 FU
Conditions at: UAAA (ALMA-ATA , KZ) observed 1600 UTC 23 October 2019
Temperature: 4.0°C (39°F)
Dewpoint: -1.0°C (30°F) [RH = 70%]
Pressure (altimeter): 30.24 inches Hg (1024.0 mb)
Winds: calm
Visibility: 1.06 miles (1.71 km)
Ceiling: at least 12,000 feet AGL
Clouds: sky clear below 12,000 feet AGL
Weather: FU BR  (smoke, mist)

METAR text: UAAA 231530Z 00000MPS 1700 R05R/P2000 BR FU NSC 04/M00 Q1024 R05R/CLRD65 TEMPO 1200 FU
Conditions at: UAAA (ALMA-ATA , KZ) observed 1530 UTC 23 October 2019
Temperature: 4.0°C (39°F)
Dewpoint: 0.0°C (32°F) [RH = 75%]
Pressure (altimeter): 30.24 inches Hg (1024.0 mb)
Winds: calm
Visibility: 1.06 miles (1.71 km)
Ceiling: at least 12,000 feet AGL
Clouds: sky clear below 12,000 feet AGL
Weather: FU BR  (smoke, mist)

METAR text: UAAA 231500Z 00000MPS 1400 R05R/P2000 FU NSC 04/M01 Q1024 R05R/CLRD65 TEMPO 1200 FU
Conditions at: UAAA (ALMA-ATA , KZ) observed 1500 UTC 23 October 2019
Temperature: 4.0°C (39°F)
Dewpoint: -1.0°C (30°F) [RH = 70%]
Pressure (altimeter): 30.24 inches Hg (1024.0 mb)
Winds: calm
Visibility: 0.87 miles (1.40 km)
Ceiling: at least 12,000 feet AGL
Clouds: sky clear below 12,000 feet AGL
Weather: FU  (smoke)

METAR text: UAAA 231430Z 17001MPS 1500 R05R/P2000 FU NSC 06/00 Q1024 R05R/CLRD65 TEMPO 1200 FU
Conditions at: UAAA (ALMA-ATA , KZ) observed 1430 UTC 23 October 2019
Temperature: 6.0°C (43°F)
Dewpoint: 0.0°C (32°F) [RH = 65%]
Pressure (altimeter): 30.24 inches Hg (1024.0 mb)
Winds: from the S (170 degrees) at 2 MPH (2 knots; 1.0 m/s)
Visibility: 0.93 miles (1.50 km)
Ceiling: at least 12,000 feet AGL
Clouds: sky clear below 12,000 feet AGL
Weather: FU  (smoke)

METAR text: UAAA 231400Z 20002MPS 1300 R05R/P2000N FU NSC 06/01 Q1024 R05R/CLRD65 TEMPO 1200 FU
Conditions at: UAAA (ALMA-ATA , KZ) observed 1400 UTC 23 October 2019
Temperature: 6.0°C (43°F)
Dewpoint: 1.0°C (34°F) [RH = 70%]
Pressure (altimeter): 30.24 inches Hg (1024.0 mb)
Winds: from the SSW (200 degrees) at 5 MPH (4 knots; 2.1 m/s)
Visibility: 0.81 miles (1.30 km)
Ceiling: at least 12,000 feet AGL
Clouds: sky clear below 12,000 feet AGL
Weather: FU  (smoke)

METAR text: UAAA 231330Z 21002MPS 1300 R05R/P2000U FU FEW200 07/01 Q1024 R05R/CLRD65 TEMPO 1200 FU
Conditions at: UAAA (ALMA-ATA , KZ) observed 1330 UTC 23 October 2019
Temperature: 7.0°C (45°F)
Dewpoint: 1.0°C (34°F) [RH = 66%]
Pressure (altimeter): 30.24 inches Hg (1024.0 mb)
Winds: from the SSW (210 degrees) at 5 MPH (4 knots; 2.1 m/s)
Visibility: 0.81 miles (1.30 km)
Ceiling: at least 12,000 feet AGL
Clouds: few clouds at 20000 feet AGL
Weather: FU  (smoke)

METAR text: UAAA 231300Z 18002MPS 1800 R05R/P2000U FU FEW200 08/01 Q1024 R05R/CLRD65 TEMPO 1500 FU
Conditions at: UAAA (ALMA-ATA , KZ) observed 1300 UTC 23 October 2019
Temperature: 8.0°C (46°F)
Dewpoint: 1.0°C (34°F) [RH = 61%]
Pressure (altimeter): 30.24 inches Hg (1024.0 mb)
Winds: from the S (180 degrees) at 5 MPH (4 knots; 2.1 m/s)
Visibility: 1.12 miles (1.80 km)
Ceiling: at least 12,000 feet AGL
Clouds: few clouds at 20000 feet AGL
Weather: FU  (smoke)

METAR text: UAAA 231230Z VRB01MPS 5000 FU FEW200 11/M01 Q1023 R05R/CLRD65 NOSIG
Conditions at: UAAA (ALMA-ATA , KZ) observed 1230 UTC 23 October 2019
Temperature: 11.0°C (52°F)
Dewpoint: -1.0°C (30°F) [RH = 43%]
Pressure (altimeter): 30.21 inches Hg (1023.0 mb)
Winds: variable direction winds at 2 MPH (2 knots; 1.0 m/s)
Visibility: 3 miles ( 5 km)
Ceiling: at least 12,000 feet AGL
Clouds: few clouds at 20000 feet AGL
Weather: FU  (smoke)

METAR text: UAAA 231200Z 04002MPS 9999 FEW050 SCT200 12/M01 Q1023 R05R/CLRD65 NOSIG
Conditions at: UAAA (ALMA-ATA , KZ) observed 1200 UTC 23 October 2019
Temperature: 12.0°C (54°F)
Dewpoint: -1.0°C (30°F) [RH = 40%]
Pressure (altimeter): 30.21 inches Hg (1023.0 mb)
Winds: from the NE (40 degrees) at 5 MPH (4 knots; 2.1 m/s)
Visibility: 6 or more miles (10+ km)
Ceiling: at least 12,000 feet AGL
Clouds: few clouds at 5000 feet AGL
scattered clouds at 20000 feet AGL
Weather: no significant weather observed at this time

METAR text: UAAA 231130Z 04002MPS 9999 SCT050 13/M00 Q1023 R05R/CLRD65 NOSIG
Conditions at: UAAA (ALMA-ATA , KZ) observed 1130 UTC 23 October 2019
Temperature: 13.0°C (55°F)
Dewpoint: 0.0°C (32°F) [RH = 41%]
Pressure (altimeter): 30.21 inches Hg (1023.0 mb)
Winds: from the NE (40 degrees) at 5 MPH (4 knots; 2.1 m/s)
Visibility: 6 or more miles (10+ km)
Ceiling: at least 12,000 feet AGL
Clouds: scattered clouds at 5000 feet AGL
Weather: no significant weather observed at this time

METAR text: UAAA 231100Z 03003MPS 9999 SCT050 14/M00 Q1023 R05R/CLRD65 NOSIG
Conditions at: UAAA (ALMA-ATA , KZ) observed 1100 UTC 23 October 2019
Temperature: 14.0°C (57°F)
Dewpoint: 0.0°C (32°F) [RH = 38%]
Pressure (altimeter): 30.21 inches Hg (1023.0 mb)
Winds: from the NNE (30 degrees) at 7 MPH (6 knots; 3.1 m/s)
Visibility: 6 or more miles (10+ km)
Ceiling: at least 12,000 feet AGL
Clouds: scattered clouds at 5000 feet AGL
Weather: no significant weather observed at this time

METAR text: UAAA 231030Z 01002MPS 9999 SCT050 15/M01 Q1023 R05R/CLRD65 NOSIG
Conditions at: UAAA (ALMA-ATA , KZ) observed 1030 UTC 23 October 2019
Temperature: 15.0°C (59°F)
Dewpoint: -1.0°C (30°F) [RH = 33%]
Pressure (altimeter): 30.21 inches Hg (1023.0 mb)
Winds: from the N (10 degrees) at 5 MPH (4 knots; 2.1 m/s)
Visibility: 6 or more miles (10+ km)
Ceiling: at least 12,000 feet AGL
Clouds: scattered clouds at 5000 feet AGL
Weather: no significant weather observed at this time

METAR text: UAAA 231000Z 04002MPS 340V090 9999 SCT050 16/M00 Q1023 R05R/CLRD65 NOSIG
Conditions at: UAAA (ALMA-ATA , KZ) observed 1000 UTC 23 October 2019
Temperature: 16.0°C (61°F)
Dewpoint: 0.0°C (32°F) [RH = 34%]
Pressure (altimeter): 30.21 inches Hg (1023.0 mb)
Winds: from the NE (40 degrees) at 5 MPH (4 knots; 2.1 m/s)
Visibility: 6 or more miles (10+ km)
Ceiling: at least 12,000 feet AGL
Clouds: scattered clouds at 5000 feet AGL
Weather: no significant weather observed at this time

METAR text: UAAA 230930Z 01002MPS 340V040 9999 SCT050 16/M01 Q1023 R05R/CLRD65 NOSIG
Conditions at: UAAA (ALMA-ATA , KZ) observed 0930 UTC 23 October 2019
Temperature: 16.0°C (61°F)
Dewpoint: -1.0°C (30°F) [RH = 31%]
Pressure (altimeter): 30.21 inches Hg (1023.0 mb)
Winds: from the N (10 degrees) at 5 MPH (4 knots; 2.1 m/s)
Visibility: 6 or more miles (10+ km)
Ceiling: at least 12,000 feet AGL
Clouds: scattered clouds at 5000 feet AGL
Weather: no significant weather observed at this time

METAR text: UAAA 230900Z VRB01MPS 9999 FEW050 SCT200 16/00 Q1023 R05R/CLRD65 NOSIG
Conditions at: UAAA (ALMA-ATA , KZ) observed 0900 UTC 23 October 2019
Temperature: 16.0°C (61°F)
Dewpoint: 0.0°C (32°F) [RH = 34%]
Pressure (altimeter): 30.21 inches Hg (1023.0 mb)
Winds: variable direction winds at 2 MPH (2 knots; 1.0 m/s)
Visibility: 6 or more miles (10+ km)
Ceiling: at least 12,000 feet AGL
Clouds: few clouds at 5000 feet AGL
scattered clouds at 20000 feet AGL
Weather: no significant weather observed at this time

METAR text: UAAA 230830Z 32002MPS 250V050 9999 FEW050 SCT200 15/01 Q1023 R05R/CLRD65 NOSIG
Conditions at: UAAA (ALMA-ATA , KZ) observed 0830 UTC 23 October 2019
Temperature: 15.0°C (59°F)
Dewpoint: 1.0°C (34°F) [RH = 39%]
Pressure (altimeter): 30.21 inches Hg (1023.0 mb)
Winds: from the NW (320 degrees) at 5 MPH (4 knots; 2.1 m/s)
Visibility: 6 or more miles (10+ km)
Ceiling: at least 12,000 feet AGL
Clouds: few clouds at 5000 feet AGL
scattered clouds at 20000 feet AGL
Weather: no significant weather observed at this time

METAR text: UAAA 230800Z VRB01MPS 9999 FEW050 SCT200 15/01 Q1023 R05R/CLRD65 NOSIG
Conditions at: UAAA (ALMA-ATA , KZ) observed 0800 UTC 23 October 2019
Temperature: 15.0°C (59°F)
Dewpoint: 1.0°C (34°F) [RH = 39%]
Pressure (altimeter): 30.21 inches Hg (1023.0 mb)
Winds: variable direction winds at 2 MPH (2 knots; 1.0 m/s)
Visibility: 6 or more miles (10+ km)
Ceiling: at least 12,000 feet AGL
Clouds: few clouds at 5000 feet AGL
scattered clouds at 20000 feet AGL
Weather: no significant weather observed at this time

METAR text: UAAA 230730Z 05002MPS 9999 FEW050 SCT200 14/01 Q1023 R05R/CLRD65 NOSIG
Conditions at: UAAA (ALMA-ATA , KZ) observed 0730 UTC 23 October 2019
Temperature: 14.0°C (57°F)
Dewpoint: 1.0°C (34°F) [RH = 41%]
Pressure (altimeter): 30.21 inches Hg (1023.0 mb)
Winds: from the NE (50 degrees) at 5 MPH (4 knots; 2.1 m/s)
Visibility: 6 or more miles (10+ km)
Ceiling: at least 12,000 feet AGL
Clouds: few clouds at 5000 feet AGL
scattered clouds at 20000 feet AGL
Weather: no significant weather observed at this time

METAR text: UAAA 230700Z VRB01MPS 9999 FEW050 SCT200 13/01 Q1023 R05R/CLRD65 NOSIG
Conditions at: UAAA (ALMA-ATA , KZ) observed 0700 UTC 23 October 2019
Temperature: 13.0°C (55°F)
Dewpoint: 1.0°C (34°F) [RH = 44%]
Pressure (altimeter): 30.21 inches Hg (1023.0 mb)
Winds: variable direction winds at 2 MPH (2 knots; 1.0 m/s)
Visibility: 6 or more miles (10+ km)
Ceiling: at least 12,000 feet AGL
Clouds: few clouds at 5000 feet AGL
scattered clouds at 20000 feet AGL
Weather: no significant weather observed at this time

METAR text: UAAA 230630Z 33002MPS 230V030 9999 SCT100 BKN200 12/00 Q1024 R05R/CLRD65 NOSIG
Conditions at: UAAA (ALMA-ATA , KZ) observed 0630 UTC 23 October 2019
Temperature: 12.0°C (54°F)
Dewpoint: 0.0°C (32°F) [RH = 44%]
Pressure (altimeter): 30.24 inches Hg (1024.0 mb)
Winds: from the NNW (330 degrees) at 5 MPH (4 knots; 2.1 m/s)
Visibility: 6 or more miles (10+ km)
Ceiling: 20000 feet AGL
Clouds: scattered clouds at 10000 feet AGL
broken clouds at 20000 feet AGL
Weather: no significant weather observed at this time

METAR text: UAAA 230600Z VRB01MPS 9999 SCT100 BKN200 11/00 Q1024 R05R/CLRD65 NOSIG
Conditions at: UAAA (ALMA-ATA , KZ) observed 0600 UTC 23 October 2019
Temperature: 11.0°C (52°F)
Dewpoint: 0.0°C (32°F) [RH = 47%]
Pressure (altimeter): 30.24 inches Hg (1024.0 mb)
Winds: variable direction winds at 2 MPH (2 knots; 1.0 m/s)
Visibility: 6 or more miles (10+ km)
Ceiling: 20000 feet AGL
Clouds: scattered clouds at 10000 feet AGL
broken clouds at 20000 feet AGL
Weather: no significant weather observed at this time

METAR text: UAAA 230530Z VRB01MPS 5000 FU SCT100 BKN200 10/M00 Q1024 R05R/CLRD65 NOSIG
Conditions at: UAAA (ALMA-ATA , KZ) observed 0530 UTC 23 October 2019
Temperature: 10.0°C (50°F)
Dewpoint: 0.0°C (32°F) [RH = 50%]
Pressure (altimeter): 30.24 inches Hg (1024.0 mb)
Winds: variable direction winds at 2 MPH (2 knots; 1.0 m/s)
Visibility: 3 miles ( 5 km)
Ceiling: 20000 feet AGL
Clouds: scattered clouds at 10000 feet AGL
broken clouds at 20000 feet AGL
Weather: FU  (smoke)

METAR text: UAAA 230500Z VRB01MPS 5000 FU SCT100 BKN200 08/M00 Q1024 R05R/CLRD65 NOSIG
Conditions at: UAAA (ALMA-ATA , KZ) observed 0500 UTC 23 October 2019
Temperature: 8.0°C (46°F)
Dewpoint: 0.0°C (32°F) [RH = 57%]
Pressure (altimeter): 30.24 inches Hg (1024.0 mb)
Winds: variable direction winds at 2 MPH (2 knots; 1.0 m/s)
Visibility: 3 miles ( 5 km)
Ceiling: 20000 feet AGL
Clouds: scattered clouds at 10000 feet AGL
broken clouds at 20000 feet AGL
Weather: FU  (smoke)

METAR text: UAAA 230430Z 00000MPS 9999 SCT100 BKN200 07/M01 Q1025 R05R/CLRD65 NOSIG
Conditions at: UAAA (ALMA-ATA , KZ) observed 0430 UTC 23 October 2019
Temperature: 7.0°C (45°F)
Dewpoint: -1.0°C (30°F) [RH = 57%]
Pressure (altimeter): 30.27 inches Hg (1025.0 mb)
Winds: calm
Visibility: 6 or more miles (10+ km)
Ceiling: 20000 feet AGL
Clouds: scattered clouds at 10000 feet AGL
broken clouds at 20000 feet AGL
Weather: no significant weather observed at this time

METAR text: UAAA 230400Z 00000MPS 9999 SCT100 BKN200 05/M01 Q1025 R05R/CLRD65 NOSIG
Conditions at: UAAA (ALMA-ATA , KZ) observed 0400 UTC 23 October 2019
Temperature: 5.0°C (41°F)
Dewpoint: -1.0°C (30°F) [RH = 65%]
Pressure (altimeter): 30.27 inches Hg (1025.0 mb)
Winds: calm
Visibility: 6 or more miles (10+ km)
Ceiling: 20000 feet AGL
Clouds: scattered clouds at 10000 feet AGL
broken clouds at 20000 feet AGL
Weather: no significant weather observed at this time

METAR text: UAAA 230330Z VRB01MPS 5000 FU SCT100 BKN200 04/M01 Q1025 R05R/CLRD65 NOSIG
Conditions at: UAAA (ALMA-ATA , KZ) observed 0330 UTC 23 October 2019
Temperature: 4.0°C (39°F)
Dewpoint: -1.0°C (30°F) [RH = 70%]
Pressure (altimeter): 30.27 inches Hg (1025.0 mb)
Winds: variable direction winds at 2 MPH (2 knots; 1.0 m/s)
Visibility: 3 miles ( 5 km)
Ceiling: 20000 feet AGL
Clouds: scattered clouds at 10000 feet AGL
broken clouds at 20000 feet AGL
Weather: FU  (smoke)

METAR text: UAAA 230300Z 18001MPS 3100 BR FU SCT100 BKN200 02/M01 Q1025 R05R/CLRD65 NOSIG
Conditions at: UAAA (ALMA-ATA , KZ) observed 0300 UTC 23 October 2019
Temperature: 2.0°C (36°F)
Dewpoint: -1.0°C (30°F) [RH = 80%]
Pressure (altimeter): 30.27 inches Hg (1025.0 mb)
Winds: from the S (180 degrees) at 2 MPH (2 knots; 1.0 m/s)
Visibility: 1.93 miles (3.11 km)
Ceiling: 20000 feet AGL
Clouds: scattered clouds at 10000 feet AGL
broken clouds at 20000 feet AGL
Weather: BR FU  (mist, smoke)

METAR text: UAAA 230230Z 00000MPS 2100 BR FU SCT100 BKN200 01/M02 Q1025 R05R/CLRD65 TEMPO 1200 BR FU
Conditions at: UAAA (ALMA-ATA , KZ) observed 0230 UTC 23 October 2019
Temperature: 1.0°C (34°F)
Dewpoint: -2.0°C (28°F) [RH = 80%]
Pressure (altimeter): 30.27 inches Hg (1025.0 mb)
Winds: calm
Visibility: 1.30 miles (2.09 km)
Ceiling: 20000 feet AGL
Clouds: scattered clouds at 10000 feet AGL
broken clouds at 20000 feet AGL
Weather: BR FU  (mist, smoke)

METAR text: UAAA 230200Z 00000MPS 2500 BR FU SCT100 BKN200 M00/M02 Q1025 R05R/CLRD65 NOSIG
Conditions at: UAAA (ALMA-ATA , KZ) observed 0200 UTC 23 October 2019
Temperature: 0.0°C (32°F)
Dewpoint: -2.0°C (28°F) [RH = 86%]
Pressure (altimeter): 30.27 inches Hg (1025.0 mb)
Winds: calm
Visibility: 1.55 miles (2.49 km)
Ceiling: 20000 feet AGL
Clouds: scattered clouds at 10000 feet AGL
broken clouds at 20000 feet AGL
Weather: BR FU  (mist, smoke)

METAR text: UAAA 230130Z 16002MPS 4000 BR FU SCT100 BKN200 M00/M02 Q1025 R05R/CLRD65 NOSIG
Conditions at: UAAA (ALMA-ATA , KZ) observed 0130 UTC 23 October 2019
Temperature: 0.0°C (32°F)
Dewpoint: -2.0°C (28°F) [RH = 86%]
Pressure (altimeter): 30.27 inches Hg (1025.0 mb)
Winds: from the SSE (160 degrees) at 5 MPH (4 knots; 2.1 m/s)
Visibility: 2.49 miles (4.01 km)
Ceiling: 20000 feet AGL
Clouds: scattered clouds at 10000 feet AGL
broken clouds at 20000 feet AGL
Weather: BR FU  (mist, smoke)

METAR text: UAAA 230100Z 22001MPS 5000 BR FU SCT100 BKN200 M00/M02 Q1025 R05R/CLRD65 NOSIG
Conditions at: UAAA (ALMA-ATA , KZ) observed 0100 UTC 23 October 2019
Temperature: 0.0°C (32°F)
Dewpoint: -2.0°C (28°F) [RH = 86%]
Pressure (altimeter): 30.27 inches Hg (1025.0 mb)
Winds: from the SW (220 degrees) at 2 MPH (2 knots; 1.0 m/s)
Visibility: 3 miles ( 5 km)
Ceiling: 20000 feet AGL
Clouds: scattered clouds at 10000 feet AGL
broken clouds at 20000 feet AGL
Weather: BR FU  (mist, smoke)

METAR text: UAAA 230030Z 18002MPS 4900 BR FU SCT100 BKN200 M00/M02 Q1025 R05R/CLRD65 NOSIG
Conditions at: UAAA (ALMA-ATA , KZ) observed 0030 UTC 23 October 2019
Temperature: 0.0°C (32°F)
Dewpoint: -2.0°C (28°F) [RH = 86%]
Pressure (altimeter): 30.27 inches Hg (1025.0 mb)
Winds: from the S (180 degrees) at 5 MPH (4 knots; 2.1 m/s)
Visibility: 3 miles ( 5 km)
Ceiling: 20000 feet AGL
Clouds: scattered clouds at 10000 feet AGL
broken clouds at 20000 feet AGL
Weather: BR FU  (mist, smoke)

METAR text: UAAA 230000Z 20001MPS 5000 BR SCT100 BKN200 M00/M02 Q1025 R05R/CLRD65 NOSIG
Conditions at: UAAA (ALMA-ATA , KZ) observed 0000 UTC 23 October 2019
Temperature: 0.0°C (32°F)
Dewpoint: -2.0°C (28°F) [RH = 86%]
Pressure (altimeter): 30.27 inches Hg (1025.0 mb)
Winds: from the SSW (200 degrees) at 2 MPH (2 knots; 1.0 m/s)
Visibility: 3 miles ( 5 km)
Ceiling: 20000 feet AGL
Clouds: scattered clouds at 10000 feet AGL
broken clouds at 20000 feet AGL
Weather: BR  (mist)

METAR text: UAAA 222330Z 19002MPS 5000 BR SCT100 M00/M02 Q1024 R23L/CLRD65 NOSIG
Conditions at: UAAA (ALMA-ATA , KZ) observed 2330 UTC 22 October 2019
Temperature: 0.0°C (32°F)
Dewpoint: -2.0°C (28°F) [RH = 86%]
Pressure (altimeter): 30.24 inches Hg (1024.0 mb)
Winds: from the S (190 degrees) at 5 MPH (4 knots; 2.1 m/s)
Visibility: 3 miles ( 5 km)
Ceiling: at least 12,000 feet AGL
Clouds: scattered clouds at 10000 feet AGL
Weather: BR  (mist)

METAR text: UAAA 222300Z 18002MPS 4800 BR SCT100 M01/M02 Q1024 R23L/CLRD65 NOSIG
Conditions at: UAAA (ALMA-ATA , KZ) observed 2300 UTC 22 October 2019
Temperature: -1.0°C (30°F)
Dewpoint: -2.0°C (28°F) [RH = 93%]
Pressure (altimeter): 30.24 inches Hg (1024.0 mb)
Winds: from the S (180 degrees) at 5 MPH (4 knots; 2.1 m/s)
Visibility: 2.98 miles (4.80 km)
Ceiling: at least 12,000 feet AGL
Clouds: scattered clouds at 10000 feet AGL
Weather: BR  (mist)

METAR text: UAAA 222230Z 19002MPS 4900 BR SCT100 M01/M02 Q1024 R23L/CLRD65 NOSIG
Conditions at: UAAA (ALMA-ATA , KZ) observed 2230 UTC 22 October 2019
Temperature: -1.0°C (30°F)
Dewpoint: -2.0°C (28°F) [RH = 93%]
Pressure (altimeter): 30.24 inches Hg (1024.0 mb)
Winds: from the S (190 degrees) at 5 MPH (4 knots; 2.1 m/s)
Visibility: 3 miles ( 5 km)
Ceiling: at least 12,000 feet AGL
Clouds: scattered clouds at 10000 feet AGL
Weather: BR  (mist)

METAR text: UAAA 222200Z 17002MPS 3700 BR FEW100 M01/M02 Q1024 R23L/CLRD65 NOSIG
Conditions at: UAAA (ALMA-ATA , KZ) observed 2200 UTC 22 October 2019
Temperature: -1.0°C (30°F)
Dewpoint: -2.0°C (28°F) [RH = 93%]
Pressure (altimeter): 30.24 inches Hg (1024.0 mb)
Winds: from the S (170 degrees) at 5 MPH (4 knots; 2.1 m/s)
Visibility: 2.30 miles (3.70 km)
Ceiling: at least 12,000 feet AGL
Clouds: few clouds at 10000 feet AGL
Weather: BR  (mist)

METAR text: UAAA 222130Z 22002MPS 3800 BR FEW100 M01/M02 Q1024 R23L/CLRD65 NOSIG
Conditions at: UAAA (ALMA-ATA , KZ) observed 2130 UTC 22 October 2019
Temperature: -1.0°C (30°F)
Dewpoint: -2.0°C (28°F) [RH = 93%]
Pressure (altimeter): 30.24 inches Hg (1024.0 mb)
Winds: from the SW (220 degrees) at 5 MPH (4 knots; 2.1 m/s)
Visibility: 2.36 miles (3.80 km)
Ceiling: at least 12,000 feet AGL
Clouds: few clouds at 10000 feet AGL
Weather: BR  (mist)

METAR text: UAAA 222100Z 20002MPS 3100 BR FU SCT100 M01/M02 Q1024 R23L/CLRD65 NOSIG
Conditions at: UAAA (ALMA-ATA , KZ) observed 2100 UTC 22 October 2019
Temperature: -1.0°C (30°F)
Dewpoint: -2.0°C (28°F) [RH = 93%]
Pressure (altimeter): 30.24 inches Hg (1024.0 mb)
Winds: from the SSW (200 degrees) at 5 MPH (4 knots; 2.1 m/s)
Visibility: 1.93 miles (3.11 km)
Ceiling: at least 12,000 feet AGL
Clouds: scattered clouds at 10000 feet AGL
Weather: BR FU  (mist, smoke)

METAR text: UAAA 222030Z VRB01MPS 2700 BR FU SCT100 M01/M02 Q1024 R23L/CLRD65 NOSIG
Conditions at: UAAA (ALMA-ATA , KZ) observed 2030 UTC 22 October 2019
Temperature: -1.0°C (30°F)
Dewpoint: -2.0°C (28°F) [RH = 93%]
Pressure (altimeter): 30.24 inches Hg (1024.0 mb)
Winds: variable direction winds at 2 MPH (2 knots; 1.0 m/s)
Visibility: 1.68 miles (2.70 km)
Ceiling: at least 12,000 feet AGL
Clouds: scattered clouds at 10000 feet AGL
Weather: BR FU  (mist, smoke)

METAR text: UAAA 222000Z 16002MPS 2400 BR FU SCT100 M00/M02 Q1024 R23L/CLRD65 NOSIG
Conditions at: UAAA (ALMA-ATA , KZ) observed 2000 UTC 22 October 2019
Temperature: 0.0°C (32°F)
Dewpoint: -2.0°C (28°F) [RH = 86%]
Pressure (altimeter): 30.24 inches Hg (1024.0 mb)
Winds: from the SSE (160 degrees) at 5 MPH (4 knots; 2.1 m/s)
Visibility: 1.49 miles (2.40 km)
Ceiling: at least 12,000 feet AGL
Clouds: scattered clouds at 10000 feet AGL
Weather: BR FU  (mist, smoke)

METAR text: UAAA 221930Z 16002MPS 2400 BR FU SCT100 M01/M02 Q1024 R23L/CLRD65 NOSIG
Conditions at: UAAA (ALMA-ATA , KZ) observed 1930 UTC 22 October 2019
Temperature: -1.0°C (30°F)
Dewpoint: -2.0°C (28°F) [RH = 93%]
Pressure (altimeter): 30.24 inches Hg (1024.0 mb)
Winds: from the SSE (160 degrees) at 5 MPH (4 knots; 2.1 m/s)
Visibility: 1.49 miles (2.40 km)
Ceiling: at least 12,000 feet AGL
Clouds: scattered clouds at 10000 feet AGL
Weather: BR FU  (mist, smoke)

METAR text: UAAA 221900Z 17002MPS 2200 BR FU SCT100 M00/M02 Q1024 R23L/CLRD65 NOSIG
Conditions at: UAAA (ALMA-ATA , KZ) observed 1900 UTC 22 October 2019
Temperature: 0.0°C (32°F)
Dewpoint: -2.0°C (28°F) [RH = 86%]
Pressure (altimeter): 30.24 inches Hg (1024.0 mb)
Winds: from the S (170 degrees) at 5 MPH (4 knots; 2.1 m/s)
Visibility: 1.37 miles (2.20 km)
Ceiling: at least 12,000 feet AGL
Clouds: scattered clouds at 10000 feet AGL
Weather: BR FU  (mist, smoke)

METAR text: UAAA 221830Z 16002MPS 1800 R23L/P2000U BR FU SCT100 M00/M02 Q1024 R23L/CLRD65 NOSIG
Conditions at: UAAA (ALMA-ATA , KZ) observed 1830 UTC 22 October 2019
Temperature: 0.0°C (32°F)
Dewpoint: -2.0°C (28°F) [RH = 86%]
Pressure (altimeter): 30.24 inches Hg (1024.0 mb)
Winds: from the SSE (160 degrees) at 5 MPH (4 knots; 2.1 m/s)
Visibility: 1.12 miles (1.80 km)
Ceiling: at least 12,000 feet AGL
Clouds: scattered clouds at 10000 feet AGL
Weather: FU BR  (smoke, mist)

METAR text: UAAA 221800Z 16002MPS 1500 R23L/P2000U BR FU SCT100 00/M02 Q1025 R23L/CLRD65 NOSIG
Conditions at: UAAA (ALMA-ATA , KZ) observed 1800 UTC 22 October 2019
Temperature: 0.0°C (32°F)
Dewpoint: -2.0°C (28°F) [RH = 86%]
Pressure (altimeter): 30.27 inches Hg (1025.0 mb)
Winds: from the SSE (160 degrees) at 5 MPH (4 knots; 2.1 m/s)
Visibility: 0.93 miles (1.50 km)
Ceiling: at least 12,000 feet AGL
Clouds: scattered clouds at 10000 feet AGL
Weather: FU BR  (smoke, mist)

METAR text: UAAA 221730Z 16002MPS 1300 R23L/P2000U BR FU SCT100 00/M02 Q1025 R23L/CLRD65 NOSIG
Conditions at: UAAA (ALMA-ATA , KZ) observed 1730 UTC 22 October 2019
Temperature: 0.0°C (32°F)
Dewpoint: -2.0°C (28°F) [RH = 86%]
Pressure (altimeter): 30.27 inches Hg (1025.0 mb)
Winds: from the SSE (160 degrees) at 5 MPH (4 knots; 2.1 m/s)
Visibility: 0.81 miles (1.30 km)
Ceiling: at least 12,000 feet AGL
Clouds: scattered clouds at 10000 feet AGL
Weather: FU BR  (smoke, mist)

METAR text: UAAA 221700Z 15002MPS 1100 R23L/P2000N BR FU SCT100 00/M02 Q1025 R23L/CLRD65 NOSIG
Conditions at: UAAA (ALMA-ATA , KZ) observed 1700 UTC 22 October 2019
Temperature: 0.0°C (32°F)
Dewpoint: -2.0°C (28°F) [RH = 86%]
Pressure (altimeter): 30.27 inches Hg (1025.0 mb)
Winds: from the SSE (150 degrees) at 5 MPH (4 knots; 2.1 m/s)
Visibility: 0.68 miles (1.09 km)
Ceiling: at least 12,000 feet AGL
Clouds: scattered clouds at 10000 feet AGL
Weather: BR FU  (mist, smoke)

METAR text: UAAA 221630Z 13002MPS 1000 R23L/2000D BR FU SCT100 00/M02 Q1026 R23L/CLRD65 NOSIG
Conditions at: UAAA (ALMA-ATA , KZ) observed 1630 UTC 22 October 2019
Temperature: 0.0°C (32°F)
Dewpoint: -2.0°C (28°F) [RH = 86%]
Pressure (altimeter): 30.30 inches Hg (1026.0 mb)
Winds: from the SE (130 degrees) at 5 MPH (4 knots; 2.1 m/s)
Visibility: 0.62 miles (1.00 km)
Ceiling: at least 12,000 feet AGL
Clouds: scattered clouds at 10000 feet AGL
Weather: FU BR  (smoke, mist)

METAR text: UAAA 221600Z 13002MPS 1000 R23L/P2000U BR FU SCT100 01/M02 Q1026 R23L/CLRD65 NOSIG
Conditions at: UAAA (ALMA-ATA , KZ) observed 1600 UTC 22 October 2019
Temperature: 1.0°C (34°F)
Dewpoint: -2.0°C (28°F) [RH = 80%]
Pressure (altimeter): 30.30 inches Hg (1026.0 mb)
Winds: from the SE (130 degrees) at 5 MPH (4 knots; 2.1 m/s)
Visibility: 0.62 miles (1.00 km)
Ceiling: at least 12,000 feet AGL
Clouds: scattered clouds at 10000 feet AGL
Weather: FU BR  (smoke, mist)

METAR text: UAAA 221530Z 16001MPS 1200 R23L/P2000N BR FU SCT100 01/M01 Q1026 R23L/CLRD65 NOSIG
Conditions at: UAAA (ALMA-ATA , KZ) observed 1530 UTC 22 October 2019
Temperature: 1.0°C (34°F)
Dewpoint: -1.0°C (30°F) [RH = 86%]
Pressure (altimeter): 30.30 inches Hg (1026.0 mb)
Winds: from the SSE (160 degrees) at 2 MPH (2 knots; 1.0 m/s)
Visibility: 0.75 miles (1.21 km)
Ceiling: at least 12,000 feet AGL
Clouds: scattered clouds at 10000 feet AGL
Weather: BR FU  (mist, smoke)

METAR text: UAAA 221500Z 00000MPS 1100 R05R/P2000N BR FU SCT100 02/M01 Q1026 R05R/CLRD65 NOSIG
Conditions at: UAAA (ALMA-ATA , KZ) observed 1500 UTC 22 October 2019
Temperature: 2.0°C (36°F)
Dewpoint: -1.0°C (30°F) [RH = 80%]
Pressure (altimeter): 30.30 inches Hg (1026.0 mb)
Winds: calm
Visibility: 0.68 miles (1.09 km)
Ceiling: at least 12,000 feet AGL
Clouds: scattered clouds at 10000 feet AGL
Weather: BR FU  (mist, smoke)

METAR text: UAAA 221430Z 00000MPS 1500 R05R/P2000N BR FU SCT100 02/M01 Q1026 R05R/CLRD65 NOSIG
Conditions at: UAAA (ALMA-ATA , KZ) observed 1430 UTC 22 October 2019
Temperature: 2.0°C (36°F)
Dewpoint: -1.0°C (30°F) [RH = 80%]
Pressure (altimeter): 30.30 inches Hg (1026.0 mb)
Winds: calm
Visibility: 0.93 miles (1.50 km)
Ceiling: at least 12,000 feet AGL
Clouds: scattered clouds at 10000 feet AGL
Weather: BR FU  (mist, smoke)

METAR text: UAAA 221400Z 00000MPS 1900 R05R/P2000U BR FU SCT100 03/M01 Q1026 R05R/CLRD65 NOSIG
Conditions at: UAAA (ALMA-ATA , KZ) observed 1400 UTC 22 October 2019
Temperature: 3.0°C (37°F)
Dewpoint: -1.0°C (30°F) [RH = 75%]
Pressure (altimeter): 30.30 inches Hg (1026.0 mb)
Winds: calm
Visibility: 1.18 miles (1.90 km)
Ceiling: at least 12,000 feet AGL
Clouds: scattered clouds at 10000 feet AGL
Weather: FU BR  (smoke, mist)

METAR text: UAAA 221330Z 00000MPS 1700 R05R/P2000 FU BKN100 04/M02 Q1027 R05R/CLRD65 TEMPO 1000 FU
Conditions at: UAAA (ALMA-ATA , KZ) observed 1330 UTC 22 October 2019
Temperature: 4.0°C (39°F)
Dewpoint: -2.0°C (28°F) [RH = 65%]
Pressure (altimeter): 30.32 inches Hg (1027.0 mb)
Winds: calm
Visibility: 1.06 miles (1.71 km)
Ceiling: 10000 feet AGL
Clouds: broken clouds at 10000 feet AGL
Weather: FU  (smoke)

METAR text: UAAA 221300Z 06001MPS 5000 FU BKN100 05/M03 Q1026 R05R/CLRD65 NOSIG
Conditions at: UAAA (ALMA-ATA , KZ) observed 1300 UTC 22 October 2019
Temperature: 5.0°C (41°F)
Dewpoint: -3.0°C (27°F) [RH = 56%]
Pressure (altimeter): 30.30 inches Hg (1026.0 mb)
Winds: from the ENE (60 degrees) at 2 MPH (2 knots; 1.0 m/s)
Visibility: 3 miles ( 5 km)
Ceiling: 10000 feet AGL
Clouds: broken clouds at 10000 feet AGL
Weather: FU  (smoke)

METAR text: UAAA 221230Z 05002MPS 9999 BKN100 06/M03 Q1026 R05R/CLRD65 NOSIG
Conditions at: UAAA (ALMA-ATA , KZ) observed 1230 UTC 22 October 2019
Temperature: 6.0°C (43°F)
Dewpoint: -3.0°C (27°F) [RH = 52%]
Pressure (altimeter): 30.30 inches Hg (1026.0 mb)
Winds: from the NE (50 degrees) at 5 MPH (4 knots; 2.1 m/s)
Visibility: 6 or more miles (10+ km)
Ceiling: 10000 feet AGL
Clouds: broken clouds at 10000 feet AGL
Weather: no significant weather observed at this time

METAR text: UAAA 221200Z 02002MPS 9999 BKN100 06/M03 Q1026 R05R/CLRD65 NOSIG
Conditions at: UAAA (ALMA-ATA , KZ) observed 1200 UTC 22 October 2019
Temperature: 6.0°C (43°F)
Dewpoint: -3.0°C (27°F) [RH = 52%]
Pressure (altimeter): 30.30 inches Hg (1026.0 mb)
Winds: from the NNE (20 degrees) at 5 MPH (4 knots; 2.1 m/s)
Visibility: 6 or more miles (10+ km)
Ceiling: 10000 feet AGL
Clouds: broken clouds at 10000 feet AGL
Weather: no significant weather observed at this time

METAR text: UAAA 221130Z 02003MPS 9999 BKN100 07/M03 Q1026 R05R/CLRD65 NOSIG
Conditions at: UAAA (ALMA-ATA , KZ) observed 1130 UTC 22 October 2019
Temperature: 7.0°C (45°F)
Dewpoint: -3.0°C (27°F) [RH = 49%]
Pressure (altimeter): 30.30 inches Hg (1026.0 mb)
Winds: from the NNE (20 degrees) at 7 MPH (6 knots; 3.1 m/s)
Visibility: 6 or more miles (10+ km)
Ceiling: 10000 feet AGL
Clouds: broken clouds at 10000 feet AGL
Weather: no significant weather observed at this time

METAR text: UAAA 221100Z 01003MPS 9999 BKN100 08/M03 Q1026 R05R/CLRD65 NOSIG
Conditions at: UAAA (ALMA-ATA , KZ) observed 1100 UTC 22 October 2019
Temperature: 8.0°C (46°F)
Dewpoint: -3.0°C (27°F) [RH = 46%]
Pressure (altimeter): 30.30 inches Hg (1026.0 mb)
Winds: from the N (10 degrees) at 7 MPH (6 knots; 3.1 m/s)
Visibility: 6 or more miles (10+ km)
Ceiling: 10000 feet AGL
Clouds: broken clouds at 10000 feet AGL
Weather: no significant weather observed at this time

Forecast for: UAAA (ALMA-ATA , KZ)
Text: TAF UAAA 231700Z 2318/2418 16004MPS 3100 BR FU SCT050 BKN100 TX16/2408Z TN00/2401Z
Forecast period: 1800 UTC 23 October 2019 to 0300 UTC 24 October 2019
Forecast type: FROM: standard forecast or significant change
Winds: from the SSE (160 degrees) at 9 MPH (8 knots; 4.1 m/s)
Visibility: 1.93 miles (3.11 km)
Ceiling: 10000 feet AGL
Clouds: scattered clouds at 5000 feet AGL
broken clouds at 10000 feet AGL
Weather: BR FU  (mist, smoke)
Text: TEMPO 2318/2324 22003MPS 1700
Forecast period: 1800 UTC 23 October 2019 to 0000 UTC 24 October 2019
Forecast type: TEMPORARY: The following changes expected for less than half the time period
Winds: from the SW (220 degrees) at 7 MPH (6 knots; 3.1 m/s)
Visibility: 1.06 miles (1.71 km)
Ceiling: unknown
Clouds: missing
Weather: no significant weather forecast for this period
Text: BECMG 2403/2404 04003G08MPS 9999 NSW
Forecast period: 0300 to 1800 UTC 24 October 2019
Forecast type: BECOMING: Conditions expected to become as follows by 0400 UTC 24 October 2019
Winds: from the NE (40 degrees) at 7 MPH (6 knots; 3.1 m/s)
gusting to 18 MPH (16 knots; 8.2 m/s)
Visibility: 6 or more miles 10+ km)
Ceiling: 10000 feet AGL
Clouds: scattered clouds at 5000 feet AGL
broken clouds at 10000 feet AGL
Weather: NSW  (no significant weather)
Text: TEMPO 2412/2418 2000 BR FU
Forecast period: 1200 to 1800 UTC 24 October 2019
Forecast type: TEMPORARY: The following changes expected for less than half the time period
Visibility: 1.24 miles (2.00 km)
Ceiling: unknown
Clouds: missing
Weather: BR FU  (mist, smoke)